Monday, August 20, 2018, 1:16 AM EDT
Back to Local

KACY, Atlantic City International

Location: Absecon, NJ, United States Lat: 39.467
Local Time: 1:16 AM EDT ( 5:16 GMT) Lon: -74.583
Time Zone: US/Eastern Elev: 75 ft

Show me the last for .
Show Decoded

2018-08-20 00:54 METAR KACY 200454Z 06008KT 10SM OVC021 22/20 A3005 RMK AO2 SLP176 T02220200
                 402560206 =
2018-08-19 23:54 METAR KACY 200354Z 07010KT 10SM OVC019 22/19 A3006 RMK AO2 SLP180 T02220194 =
2018-08-19 22:54 METAR KACY 200254Z 07012G20KT 10SM OVC017 22/20 A3005 RMK AO2 SLP175 T02170200
                 53012 =
2018-08-19 22:42 METAR KACY 200242Z 06011KT 10SM OVC015 22/20 A3005 RMK AO2 T02170200 =
2018-08-19 22:18 METAR KACY 200218Z 05012G19KT 10SM OVC011 22/20 A3005 RMK AO2 T02170200 =
2018-08-19 21:54 METAR KACY 200154Z 05011KT 10SM OVC009 21/20 A3004 RMK AO2 SLP171 T02110200 =
2018-08-19 20:54 METAR KACY 200054Z 04012G19KT 8SM OVC008 21/21 A3002 RMK AO2 SLP165 T02110206 =
2018-08-19 19:54 METAR KACY 192354Z 05013KT 5SM BR OVC009 22/21 A3001 RMK AO2 SLP163 T02170206
                 10233 20217 53014 =
2018-08-19 19:16 METAR KACY 192316Z 04011KT 8SM OVC009 22/20 A3000 RMK AO2 T02170200 =
2018-08-19 18:54 METAR KACY 192254Z 04008KT 10SM OVC010 22/20 A3000 RMK AO2 SLP157 T02220200 =
2018-08-19 17:54 METAR KACY 192154Z 03011KT 10SM OVC011 23/21 A2998 RMK AO2 SLP151 T02280206 =
2018-08-19 16:54 METAR KACY 192054Z 04009KT 10SM OVC011 23/21 A2997 RMK AO2 SLP149 T02280206
                 53006 =
2018-08-19 15:54 METAR KACY 191954Z 05010KT 10SM OVC012 23/21 A2996 RMK AO2 SLP146 T02330206 =
2018-08-19 15:27 METAR KACY 191927Z 05012KT 10SM OVC010 23/21 A2996 RMK AO2 T02280206 =
2018-08-19 14:54 METAR KACY 191854Z 05014G19KT 10SM OVC009 23/21 A2996 RMK AO2 SLP144 T02280206 =
2018-08-19 14:26 METAR KACY 191826Z 04013G20KT 10SM OVC009 23/21 A2996 RMK AO2 T02280206 =
2018-08-19 14:05 METAR KACY 191805Z 04010KT 10SM OVC010 23/21 A2996 RMK AO2 T02280206 =
2018-08-19 13:54 METAR KACY 191754Z 04013KT 10SM OVC009 23/21 A2996 RMK AO2 SLP144 60000
                 T02280206 10256 20228 51010 =
2018-08-19 13:27 METAR KACY 191727Z 05013G23KT 10SM OVC009 23/21 A2995 RMK AO2 T02280211 =
2018-08-19 12:54 METAR KACY 191654Z 04015G26KT 10SM OVC010 23/21 A2994 RMK AO2 PK WND 04026/1650
                 SLP138 T02280206 =
2018-08-19 12:40 METAR KACY 191640Z 05013KT 10SM OVC010 23/21 A2994 RMK AO2 T02280206 =
2018-08-19 11:54 METAR KACY 191554Z 05010KT 10SM OVC009 23/21 A2995 RMK AO2 RAE08 SLP141 P0000
                 T02280211 =
2018-08-19 11:23 METAR KACY 191523Z 05011G21KT 10SM OVC008 23/22 A2994 RMK AO2 RAE08 CIG 007V012
                 P0000 T02280217 =
2018-08-19 10:54 METAR KACY 191454Z 05014G21KT 3SM -RA BR BKN012 OVC018 23/22 A2993 RMK AO2 RAB17
                 SLP133 P0000 60000 T02330222 53015 =
2018-08-19 10:12 METAR KACY 191412Z 05011KT 10SM BKN011 BKN016 25/22 A2991 RMK AO2 T02500222 =
2018-08-19 09:54 METAR KACY 191354Z 05013G18KT 10SM OVC009 25/23 A2991 RMK AO2 SLP127 T02500228 =
2018-08-19 08:54 METAR KACY 191254Z 02009KT 10SM OVC007 23/22 A2989 RMK AO2 SLP121 T02330222 =
2018-08-19 08:40 METAR KACY 191240Z 01007KT 10SM BKN008 BKN021 OVC034 23/22 A2990 RMK AO2
                 T02330222 =
2018-08-19 08:20 METAR KACY 191220Z 02007KT 10SM FEW009 BKN019 OVC027 23/22 A2989 RMK AO2
                 T02330217 =
2018-08-19 07:54 METAR KACY 191154Z 02008KT 10SM OVC017 23/22 A2988 RMK AO2 SLP118 60000
                 T02330222 10250 20228 51019 =
2018-08-19 07:36 METAR KACY 191136Z 02006KT 10SM BKN015 BKN019 BKN031 23/22 A2988 =
2018-08-19 06:54 METAR KACY 191054Z 02004KT 10SM FEW012 SCT030 23/22 A2987 RMK AO2 SLP113
                 T02280217 =
2018-08-19 06:47 METAR KACY 191047Z 02005KT 10SM FEW012 FEW017 BKN030 23/22 A2987 RMK AO2
                 T02280217 =
2018-08-19 06:26 METAR KACY 191026Z 02005KT 10SM FEW009 BKN015 OVC029 23/22 A2986 RMK AO2
                 T02280222 =
2018-08-19 06:18 METAR KACY 191018Z 01006KT 10SM SCT009 OVC013 23/22 A2985 =
2018-08-19 05:54 METAR KACY 190954Z 02007KT 10SM BKN006 OVC014 23/22 A2985 RMK AO2 RAB0856E11 CIG
                 005V010 SLP106 P0000 T02330222 =
2018-08-19 05:06 METAR KACY 190906Z 04006KT 7SM -RA BKN007 BKN023 OVC095 23/23 A2983 =
2018-08-19 04:54 METAR KACY 190854Z 04009KT 10SM FEW005 BKN065 OVC095 23/23 A2983 RMK AO2
                 RAB10E19 SLP099 P0000 60000 T02330228 58002 =
2018-08-19 04:37 METAR KACY 190837Z 02008KT 10SM FEW005 BKN022 OVC027 24/23 A2983 RMK AO2
                 RAB10E19 P0000 T02390233 =
2018-08-19 04:21 METAR KACY 190821Z 36007KT 9SM BKN022 BKN050 BKN110 24/23 A2983 RMK AO2 RAB10E19
                 P0000 T02390233 =
2018-08-19 03:54 METAR KACY 190754Z 36004KT 9SM FEW011 SCT018 24/23 A2983 RMK AO2 SLP101
                 T02390233 =
2018-08-19 03:51 METAR KACY 190751Z 36004KT 8SM SCT011 SCT018 24/23 A2983 RMK AO2 =
2018-08-19 03:38 METAR KACY 190738Z 05003KT 9SM BKN011 24/23 A2983 RMK AO2 T02390233 =
2018-08-19 03:13 METAR KACY 190713Z 08003KT 9SM BKN009 BKN017 OVC046 24/23 A2984 RMK AO2
                 T02440233 =
2018-08-19 03:02 METAR KACY 190702Z 06003KT 9SM SCT009 BKN018 BKN047 24/23 A2984 RMK AO2
                 T02440233 =
2018-08-19 02:54 METAR KACY 190654Z 06003KT 9SM FEW018 BKN047 BKN055 24/23 A2983 RMK AO2 SLP101
                 T02390233 =
2018-08-19 01:54 METAR KACY 190554Z 00000KT 10SM FEW023 BKN039 OVC047 25/23 A2983 RMK AO2 SLP102
                 60000 T02500233 10294 20239 55001 =

Support USWX by starting your Amazon purchase here.